aviador You're here:

PABA Decoded Metar

BARTER ISLAND in AK, USA
Report Time2017-11-20 21:52:00
UTC Time2017-11-20 22:51:44
Flight Rules mvfr MVFR
Wind150° at 04 kt
W.Decomp.*RWY 07: 2.4 kt HW 3.2 kt RCW
W.Rank150° ranks 33
Current wind is below 150° avg. (6.0)
Visibility9999 m
Phenomena:N/A
Clouds:Overcast 029 Hf
Expected CloudBase > 800 ft AGL from Temp-Dew spread
Ceiling2,900 ft
Temp-21°C (ISA -36)
Dew Point-23°C (84% RH)
AAT-26.1°C
QNH1028 hPa
Density Alt-5,121 ft
Elevation7 ft
Report Wrong Elevation
Raw Report
PABA 202152Z AUTO 15004KT 10SM OVC029 M21/M23 A3036=

Extra information for PABA:More info

Airport Information Weather charts Add Link Nearby Venues Social comments

AIRNAV info for PABA